createdAt,value
2019-02-22T00:00:50.858Z,9.70
2019-02-22T00:03:20.060Z,9.60
2019-02-22T00:05:48.622Z,9.60
2019-02-22T00:08:17.930Z,9.40
2019-02-22T00:10:46.659Z,9.30
2019-02-22T00:13:15.233Z,9.20
2019-02-22T00:15:43.939Z,9.10
2019-02-22T00:18:12.768Z,8.90
2019-02-22T00:20:41.451Z,8.80
2019-02-22T00:23:10.094Z,8.70
2019-02-22T00:25:38.838Z,8.70
2019-02-22T00:28:07.475Z,8.70
2019-02-22T00:30:36.038Z,8.70
2019-02-22T00:33:04.792Z,8.70
2019-02-22T00:35:33.403Z,8.70
2019-02-22T00:38:02.000Z,8.70
2019-02-22T00:40:30.611Z,8.80
2019-02-22T00:42:59.255Z,8.80
2019-02-22T00:45:27.890Z,8.80
2019-02-22T00:47:56.503Z,8.90
2019-02-22T00:50:25.074Z,8.90
2019-02-22T00:52:53.986Z,9.00
2019-02-22T00:55:22.603Z,9.00
2019-02-22T00:57:51.172Z,9.00
2019-02-22T01:00:19.875Z,9.10
2019-02-22T01:02:48.577Z,9.10
2019-02-22T01:05:17.239Z,9.10
2019-02-22T01:07:45.950Z,9.10
2019-02-22T01:10:15.031Z,9.20
2019-02-22T01:12:43.603Z,9.40
2019-02-22T01:15:12.742Z,9.40
2019-02-22T01:17:41.497Z,9.40
2019-02-22T01:20:10.215Z,9.50
2019-02-22T01:22:38.838Z,9.80
2019-02-22T01:25:08.590Z,9.80
2019-02-22T01:27:37.224Z,9.80
2019-02-22T01:30:09.040Z,9.70
2019-02-22T01:32:37.843Z,9.70
2019-02-22T01:35:06.646Z,9.70
2019-02-22T01:37:35.291Z,9.80
2019-02-22T01:40:05.027Z,9.70
2019-02-22T01:42:33.597Z,9.70
2019-02-22T01:45:02.235Z,9.70
2019-02-22T01:47:30.903Z,9.80
2019-02-22T01:49:59.472Z,9.80
2019-02-22T01:52:28.045Z,9.80
2019-02-22T01:54:56.712Z,9.80
2019-02-22T01:57:25.275Z,9.90
2019-02-22T01:59:53.848Z,9.80
2019-02-22T02:02:22.526Z,9.80
2019-02-22T02:04:51.095Z,9.80
2019-02-22T02:07:20.208Z,9.80
2019-02-22T02:09:48.815Z,9.80
2019-02-22T02:12:17.520Z,9.80
2019-02-22T02:14:46.151Z,9.90
2019-02-22T02:17:14.935Z,9.90
2019-02-22T02:19:45.154Z,10.00
2019-02-22T02:22:13.858Z,9.80
2019-02-22T02:24:42.611Z,9.90
2019-02-22T02:27:11.318Z,9.90
2019-02-22T02:29:39.835Z,9.90
2019-02-22T02:32:08.324Z,9.90
2019-02-22T02:34:36.857Z,9.80
2019-02-22T02:37:05.311Z,9.90
2019-02-22T02:39:33.793Z,9.70
2019-02-22T02:42:02.251Z,9.80
2019-02-22T02:44:30.772Z,9.80
2019-02-22T02:46:59.327Z,9.80
2019-02-22T02:49:27.784Z,9.80
2019-02-22T02:51:56.239Z,9.80
2019-02-22T02:54:24.789Z,9.90
2019-02-22T02:56:53.239Z,9.80
2019-02-22T02:59:21.763Z,9.70
2019-02-22T03:01:50.348Z,9.70
2019-02-22T03:04:18.896Z,9.80
2019-02-22T03:06:52.522Z,9.80
2019-02-22T03:09:21.014Z,9.90
2019-02-22T03:11:49.467Z,9.90
2019-02-22T03:14:17.919Z,9.90
2019-02-22T03:16:46.662Z,9.80
2019-02-22T03:19:15.286Z,9.90
2019-02-22T03:21:43.744Z,10.00
2019-02-22T03:24:12.419Z,9.90
2019-02-22T03:26:40.886Z,10.00
2019-02-22T03:29:09.415Z,9.90
2019-02-22T03:31:37.911Z,9.70
2019-02-22T03:34:06.432Z,9.70
2019-02-22T03:36:34.976Z,9.60
2019-02-22T03:39:04.955Z,9.50
2019-02-22T03:41:33.686Z,9.40
2019-02-22T03:44:02.247Z,9.30
2019-02-22T03:46:30.715Z,9.30
2019-02-22T03:48:59.171Z,9.20
2019-02-22T03:51:27.650Z,9.10
2019-02-22T03:53:57.512Z,9.20
2019-02-22T03:56:26.375Z,9.10
2019-02-22T03:58:54.927Z,9.10
2019-02-22T04:01:23.526Z,9.20
2019-02-22T04:03:52.075Z,9.20
2019-02-22T04:06:20.529Z,9.30
2019-02-22T04:08:48.987Z,9.40
2019-02-22T04:11:17.460Z,9.40
2019-02-22T04:13:45.907Z,9.40
2019-02-22T04:16:14.388Z,9.50
2019-02-22T04:18:42.983Z,9.50
2019-02-22T04:21:11.791Z,9.50
2019-02-22T04:23:40.351Z,9.40
2019-02-22T04:26:08.875Z,9.40
2019-02-22T04:28:37.351Z,9.40
2019-02-22T04:31:05.810Z,9.40
2019-02-22T04:33:34.290Z,9.40
2019-02-22T04:36:02.816Z,9.30
2019-02-22T04:38:31.302Z,9.40
2019-02-22T04:40:59.834Z,9.40
2019-02-22T04:43:28.356Z,9.50
2019-02-22T04:45:56.835Z,9.40
2019-02-22T04:48:25.297Z,9.40
2019-02-22T04:50:54.131Z,9.40
2019-02-22T04:53:22.661Z,9.30
2019-02-22T04:55:51.191Z,9.40
2019-02-22T04:58:19.744Z,9.30
2019-02-22T05:00:48.278Z,9.20
2019-02-22T05:03:16.846Z,9.20
2019-02-22T05:05:45.368Z,9.30
2019-02-22T05:08:13.829Z,9.30
2019-02-22T05:10:42.302Z,9.20
2019-02-22T05:13:10.761Z,9.20
2019-02-22T05:15:39.320Z,9.30
2019-02-22T05:18:07.775Z,9.20
2019-02-22T05:20:36.229Z,9.30
2019-02-22T05:23:07.423Z,9.30
2019-02-22T05:25:35.023Z,9.30
2019-02-22T05:28:03.914Z,9.40
2019-02-22T05:30:32.566Z,9.30
2019-02-22T05:33:01.084Z,9.40
2019-02-22T05:35:29.576Z,9.40
2019-02-22T05:37:58.025Z,9.50
2019-02-22T05:40:26.530Z,9.40
2019-02-22T05:42:55.052Z,9.40
2019-02-22T05:45:23.502Z,9.30
2019-02-22T05:47:51.976Z,9.30
2019-02-22T05:50:20.431Z,9.40
2019-02-22T05:52:49.061Z,9.40
2019-02-22T05:55:17.589Z,9.40
2019-02-22T05:57:46.120Z,9.30
2019-02-22T06:00:15.832Z,9.30
2019-02-22T06:02:44.359Z,9.40
2019-02-22T06:05:12.845Z,9.40
2019-02-22T06:07:41.327Z,9.40
2019-02-22T06:10:10.899Z,9.40
2019-02-22T06:12:39.527Z,9.30
2019-02-22T06:15:08.831Z,9.20
2019-02-22T06:17:37.310Z,9.20
2019-02-22T06:20:11.375Z,9.20
2019-02-22T06:22:39.998Z,9.20
2019-02-22T06:25:08.528Z,9.20
2019-02-22T06:27:37.126Z,9.20
2019-02-22T06:30:08.342Z,9.20
2019-02-22T06:32:36.797Z,9.40
2019-02-22T06:35:08.825Z,9.40
2019-02-22T06:37:36.875Z,9.30
2019-02-22T06:40:08.104Z,9.30
2019-02-22T06:42:45.201Z,9.20
2019-02-22T06:45:08.518Z,9.20
2019-02-22T06:47:37.002Z,9.30
2019-02-22T06:50:07.767Z,9.30
2019-02-22T06:52:36.243Z,9.30
2019-02-22T06:55:05.844Z,9.30
2019-02-22T06:57:34.363Z,9.40
2019-02-22T07:00:03.934Z,9.40
2019-02-22T07:02:32.444Z,9.40
2019-02-22T07:05:00.936Z,9.40
2019-02-22T07:07:29.459Z,9.50
2019-02-22T07:09:57.940Z,9.40
2019-02-22T07:12:30.835Z,9.40
2019-02-22T07:14:59.385Z,9.50
2019-02-22T07:17:27.846Z,9.70
2019-02-22T07:19:56.392Z,9.70
2019-02-22T07:22:24.875Z,9.80
2019-02-22T07:24:53.399Z,9.90
2019-02-22T07:27:21.967Z,10.00
2019-02-22T07:29:50.504Z,10.00
2019-02-22T07:32:19.027Z,10.10
2019-02-22T07:34:47.529Z,10.10
2019-02-22T07:37:16.045Z,10.30
2019-02-22T07:39:44.934Z,10.40
2019-02-22T07:42:13.392Z,10.50
2019-02-22T07:44:41.851Z,10.50
2019-02-22T07:47:10.327Z,10.40
2019-02-22T07:49:38.966Z,10.50
2019-02-22T07:52:07.591Z,10.50
2019-02-22T07:54:36.082Z,10.50
2019-02-22T07:57:04.542Z,10.70
2019-02-22T07:59:33.098Z,10.80
2019-02-22T08:02:01.560Z,10.80
2019-02-22T08:04:30.039Z,11.10
2019-02-22T08:06:58.499Z,11.30
2019-02-22T08:09:26.967Z,11.50
2019-02-22T08:11:55.443Z,11.60
2019-02-22T08:14:23.899Z,11.80
2019-02-22T08:16:52.404Z,11.90
2019-02-22T08:19:20.924Z,12.10
2019-02-22T08:21:49.384Z,12.00
2019-02-22T08:24:17.868Z,11.80
2019-02-22T08:26:46.400Z,11.90
2019-02-22T08:29:14.955Z,12.00
2019-02-22T08:31:43.415Z,12.00
2019-02-22T08:34:12.047Z,12.00
2019-02-22T08:36:40.514Z,11.90
2019-02-22T08:39:09.042Z,12.00
2019-02-22T08:41:37.524Z,12.10
2019-02-22T08:44:05.983Z,11.90
2019-02-22T08:46:34.885Z,11.90
2019-02-22T08:49:03.344Z,11.80
2019-02-22T08:51:32.000Z,11.70
2019-02-22T08:54:00.457Z,11.70
2019-02-22T08:56:28.999Z,11.50
2019-02-22T08:58:57.495Z,11.40
2019-02-22T09:01:26.023Z,11.50
2019-02-22T09:03:54.520Z,11.60
2019-02-22T09:06:23.123Z,11.60
2019-02-22T09:08:51.583Z,11.80
2019-02-22T09:11:20.065Z,12.10
2019-02-22T09:13:48.527Z,12.20
2019-02-22T09:16:17.462Z,12.30
2019-02-22T09:18:45.994Z,12.30
2019-02-22T09:21:14.448Z,12.40
2019-02-22T09:23:42.932Z,12.60
2019-02-22T09:26:11.406Z,12.60
2019-02-22T09:28:39.958Z,12.80
2019-02-22T09:31:08.414Z,12.80
2019-02-22T09:33:36.947Z,12.90
2019-02-22T09:36:05.424Z,13.00
2019-02-22T09:38:33.884Z,13.10
2019-02-22T09:41:02.812Z,13.20
2019-02-22T09:43:31.279Z,13.20
2019-02-22T09:45:59.736Z,13.00
2019-02-22T09:48:28.224Z,13.00
2019-02-22T09:50:56.718Z,12.90
2019-02-22T09:53:25.352Z,12.90
2019-02-22T09:55:53.883Z,13.00
2019-02-22T09:58:22.340Z,13.00
2019-02-22T10:00:50.828Z,13.20
2019-02-22T10:03:19.366Z,13.50
2019-02-22T10:05:48.025Z,13.70
2019-02-22T10:08:16.584Z,13.70
2019-02-22T10:10:45.045Z,13.80
2019-02-22T10:13:13.528Z,13.80
2019-02-22T10:15:41.979Z,13.70
2019-02-22T10:18:10.455Z,13.90
2019-02-22T10:20:38.905Z,13.90
2019-02-22T10:23:07.437Z,13.60
2019-02-22T10:25:35.915Z,13.40
2019-02-22T10:28:04.436Z,13.50
2019-02-22T10:30:32.921Z,13.60
2019-02-22T10:33:01.454Z,13.70
2019-02-22T10:35:29.984Z,13.70
2019-02-22T10:37:58.458Z,13.80
2019-02-22T10:40:26.907Z,13.90
2019-02-22T10:42:55.396Z,14.40
2019-02-22T10:45:23.871Z,14.90
2019-02-22T10:47:52.385Z,15.20
2019-02-22T10:50:20.870Z,15.60
2019-02-22T10:52:49.399Z,16.30
2019-02-22T10:55:17.956Z,16.10
2019-02-22T10:57:46.475Z,15.90
2019-02-22T11:00:15.465Z,15.80
2019-02-22T11:02:43.935Z,15.70
2019-02-22T11:05:12.528Z,16.00
2019-02-22T11:07:41.083Z,16.40
2019-02-22T11:10:11.739Z,16.80
2019-02-22T11:12:40.218Z,16.90
2019-02-22T11:15:10.712Z,16.80
2019-02-22T11:17:39.167Z,16.80
2019-02-22T11:20:09.680Z,16.30
2019-02-22T11:22:38.139Z,14.90
2019-02-22T11:25:14.342Z,14.90
2019-02-22T11:27:42.879Z,14.60
2019-02-22T11:30:16.027Z,14.60
2019-02-22T11:32:44.583Z,14.50
2019-02-22T11:35:13.043Z,14.50
2019-02-22T11:37:41.526Z,14.30
2019-02-22T11:40:11.088Z,14.00
2019-02-22T11:42:39.540Z,13.80
2019-02-22T11:45:09.547Z,13.90
2019-02-22T11:47:38.062Z,13.80
2019-02-22T11:50:09.522Z,13.70
2019-02-22T11:52:38.195Z,13.90
2019-02-22T11:55:09.267Z,14.00
2019-02-22T11:57:37.787Z,14.30
2019-02-22T12:00:09.714Z,14.20
2019-02-22T12:02:38.235Z,14.40
2019-02-22T12:05:06.755Z,14.30
2019-02-22T12:07:36.083Z,14.30
2019-02-22T12:10:06.482Z,14.40
2019-02-22T12:12:34.936Z,14.50
2019-02-22T12:15:04.002Z,14.30
2019-02-22T12:17:32.526Z,14.20
2019-02-22T12:20:00.979Z,14.30
2019-02-22T12:22:29.468Z,14.20
2019-02-22T12:24:57.916Z,14.50
2019-02-22T12:27:26.367Z,14.90
2019-02-22T12:29:55.035Z,15.10
2019-02-22T12:32:23.497Z,15.10
2019-02-22T12:34:51.955Z,14.90
2019-02-22T12:37:20.671Z,15.30
2019-02-22T12:39:49.123Z,15.80
2019-02-22T12:42:17.575Z,16.20
2019-02-22T12:44:46.131Z,16.50
2019-02-22T12:47:14.578Z,16.70
2019-02-22T12:49:43.031Z,17.30
2019-02-22T12:52:11.693Z,17.10
2019-02-22T12:54:40.214Z,18.00
2019-02-22T12:57:08.671Z,19.80
2019-02-22T12:59:37.399Z,21.00
2019-02-22T13:02:05.923Z,22.70
2019-02-22T13:04:34.399Z,23.60
2019-02-22T13:07:03.220Z,23.30
2019-02-22T13:09:36.429Z,23.10
2019-02-22T13:12:01.855Z,23.70
2019-02-22T13:14:30.495Z,24.80
2019-02-22T13:16:58.955Z,24.30
2019-02-22T13:19:27.403Z,24.10
2019-02-22T13:21:56.291Z,22.50
2019-02-22T13:24:24.831Z,22.30
2019-02-22T13:26:53.355Z,22.20
2019-02-22T13:29:21.848Z,22.70
2019-02-22T13:31:50.390Z,22.40
2019-02-22T13:34:18.915Z,22.40
2019-02-22T13:36:47.484Z,22.80
2019-02-22T13:39:16.075Z,22.00
2019-02-22T13:41:44.601Z,21.00
2019-02-22T13:44:13.243Z,20.70
2019-02-22T13:46:41.772Z,21.50
2019-02-22T13:49:10.296Z,22.40
2019-02-22T13:51:38.839Z,22.50
2019-02-22T13:54:07.637Z,23.20
2019-02-22T13:56:36.139Z,22.00
2019-02-22T13:59:04.684Z,20.80
2019-02-22T14:01:33.286Z,19.60
2019-02-22T14:04:01.747Z,18.60
2019-02-22T14:06:30.243Z,17.40
2019-02-22T14:08:58.702Z,16.80
2019-02-22T14:11:27.227Z,16.60
2019-02-22T14:13:55.890Z,16.50
2019-02-22T14:16:24.346Z,16.30
2019-02-22T14:18:52.797Z,17.30
2019-02-22T14:21:21.284Z,18.80
2019-02-22T14:23:49.744Z,19.80
2019-02-22T14:26:18.284Z,20.10
2019-02-22T14:28:48.707Z,19.80
2019-02-22T14:31:17.246Z,18.80
2019-02-22T14:33:45.700Z,18.40
2019-02-22T14:36:14.252Z,18.10
2019-02-22T14:38:42.859Z,17.10
2019-02-22T14:41:11.468Z,16.20
2019-02-22T14:43:39.939Z,15.90
2019-02-22T14:46:08.395Z,15.80
2019-02-22T14:48:36.848Z,15.70
2019-02-22T14:51:05.323Z,15.60
2019-02-22T14:53:33.772Z,15.50
2019-02-22T14:56:02.224Z,15.30
2019-02-22T14:58:30.707Z,15.10
2019-02-22T15:00:59.163Z,15.00
2019-02-22T15:03:27.649Z,14.70
2019-02-22T15:05:56.231Z,14.30
2019-02-22T15:08:24.686Z,14.30
2019-02-22T15:10:53.175Z,14.40
2019-02-22T15:13:21.727Z,14.50
2019-02-22T15:16:03.666Z,14.80
2019-02-22T15:18:31.305Z,15.40
2019-02-22T15:20:59.827Z,15.30
2019-02-22T15:23:28.358Z,15.80
2019-02-22T15:25:57.195Z,15.70
2019-02-22T15:28:26.456Z,15.70
2019-02-22T15:30:55.178Z,15.80
2019-02-22T15:33:23.903Z,15.40
2019-02-22T15:35:52.447Z,15.20
2019-02-22T15:38:20.994Z,15.00
2019-02-22T15:40:49.572Z,14.90
2019-02-22T15:43:18.054Z,14.70
2019-02-22T15:45:47.254Z,14.80
2019-02-22T15:48:16.303Z,14.80
2019-02-22T15:50:44.754Z,14.70
2019-02-22T15:53:13.200Z,14.70
2019-02-22T15:55:41.678Z,14.30
2019-02-22T15:58:10.126Z,14.30
2019-02-22T16:00:38.583Z,14.20
2019-02-22T16:03:07.072Z,14.10
2019-02-22T16:05:37.233Z,14.10
2019-02-22T16:08:07.725Z,14.00
2019-02-22T16:10:35.956Z,13.60
2019-02-22T16:13:04.403Z,13.40
2019-02-22T16:15:32.995Z,13.30
2019-02-22T16:18:01.483Z,13.10
2019-02-22T16:20:30.091Z,12.90
2019-02-22T16:22:58.535Z,12.70
2019-02-22T16:25:27.089Z,12.50
2019-02-22T16:27:55.620Z,12.40
2019-02-22T16:30:25.903Z,12.20
2019-02-22T16:32:54.375Z,12.10
2019-02-22T16:35:22.836Z,12.00
2019-02-22T16:37:51.408Z,12.00
2019-02-22T16:40:19.860Z,11.80
2019-02-22T16:42:48.315Z,11.70
2019-02-22T16:45:16.805Z,11.60
2019-02-22T16:47:45.251Z,11.50
2019-02-22T16:50:14.439Z,11.30
2019-02-22T16:52:45.150Z,11.10
2019-02-22T16:55:15.203Z,10.90
2019-02-22T16:57:43.732Z,10.80
2019-02-22T17:00:14.148Z,10.60
2019-02-22T17:02:43.571Z,10.40
2019-02-22T17:05:16.527Z,10.40
2019-02-22T17:07:45.094Z,10.20
2019-02-22T17:10:13.682Z,10.20
2019-02-22T17:12:42.282Z,10.00
2019-02-22T17:15:12.217Z,10.00
2019-02-22T17:17:40.744Z,9.70
2019-02-22T17:20:11.118Z,9.50
2019-02-22T17:22:39.664Z,9.40
2019-02-22T17:25:11.133Z,9.20
2019-02-22T17:27:42.336Z,9.20
2019-02-22T17:30:15.920Z,9.10
2019-02-22T17:32:44.453Z,9.00
2019-02-22T17:35:13.045Z,9.00
2019-02-22T17:37:41.999Z,8.90
2019-02-22T17:40:18.907Z,8.80
2019-02-22T17:42:47.497Z,8.90
2019-02-22T17:45:16.020Z,8.80
2019-02-22T17:47:44.552Z,8.90
2019-02-22T17:50:13.176Z,8.80
2019-02-22T17:52:41.721Z,8.70
2019-02-22T17:55:10.633Z,8.70
2019-02-22T17:57:39.304Z,8.60
2019-02-22T18:00:17.215Z,8.60
2019-02-22T18:02:45.780Z,8.60
2019-02-22T18:05:14.484Z,8.70
2019-02-22T18:07:43.092Z,8.80
2019-02-22T18:10:12.208Z,9.10
2019-02-22T18:12:40.657Z,9.20
2019-02-22T18:15:11.744Z,9.00
2019-02-22T18:17:41.693Z,9.00
2019-02-22T18:20:10.222Z,8.90
2019-02-22T18:22:38.750Z,8.80
2019-02-22T18:25:08.763Z,8.60
2019-02-22T18:27:37.288Z,8.50
2019-02-22T18:30:08.815Z,8.50
2019-02-22T18:32:37.313Z,8.40
2019-02-22T18:35:07.076Z,8.30
2019-02-22T18:37:35.602Z,8.20
2019-02-22T18:40:06.901Z,8.10
2019-02-22T18:42:35.520Z,8.00
2019-02-22T18:47:32.765Z,7.90
2019-02-22T18:50:01.302Z,7.80
2019-02-22T18:52:29.825Z,7.70
2019-02-22T18:54:58.304Z,7.60
2019-02-22T18:57:26.839Z,7.50
2019-02-22T18:59:55.371Z,7.50
2019-02-22T19:02:24.007Z,7.40
2019-02-22T19:04:52.847Z,7.30
2019-02-22T19:07:21.635Z,7.30
2019-02-22T19:09:50.311Z,7.20
2019-02-22T19:12:18.856Z,7.10
2019-02-22T19:14:47.407Z,7.00
2019-02-22T19:17:15.993Z,7.00
2019-02-22T19:19:44.521Z,6.90
2019-02-22T19:22:13.309Z,6.80
2019-02-22T19:24:41.856Z,6.70
2019-02-22T19:27:10.322Z,6.70
2019-02-22T19:29:38.911Z,6.80
2019-02-22T19:32:07.399Z,6.90
2019-02-22T19:34:35.861Z,6.80
2019-02-22T19:37:04.385Z,6.70
2019-02-22T19:39:32.974Z,6.60
2019-02-22T19:42:01.484Z,6.50
2019-02-22T19:44:30.018Z,6.40
2019-02-22T19:46:58.665Z,6.40
2019-02-22T19:49:27.199Z,6.40
2019-02-22T19:51:55.764Z,6.40
2019-02-22T19:54:24.471Z,6.40
2019-02-22T19:56:52.993Z,6.30
2019-02-22T19:59:21.450Z,6.40
2019-02-22T20:01:50.119Z,6.30
2019-02-22T20:04:18.572Z,6.20
2019-02-22T20:06:47.101Z,6.20
2019-02-22T20:09:15.964Z,6.10
2019-02-22T20:11:44.584Z,6.10
2019-02-22T20:14:13.200Z,6.00
2019-02-22T20:16:41.836Z,6.00
2019-02-22T20:19:10.361Z,5.90
2019-02-22T20:21:38.904Z,6.00
2019-02-22T20:24:07.523Z,5.90
2019-02-22T20:26:36.012Z,5.80
2019-02-22T20:29:04.596Z,5.70
2019-02-22T20:31:33.220Z,5.70
2019-02-22T20:34:01.715Z,5.70
2019-02-22T20:36:32.020Z,5.80
2019-02-22T20:39:00.765Z,5.90
2019-02-22T20:41:29.307Z,5.90
2019-02-22T20:43:57.845Z,5.80
2019-02-22T20:46:26.416Z,5.80
2019-02-22T20:49:00.808Z,5.80
2019-02-22T20:51:25.072Z,5.80
2019-02-22T20:53:53.638Z,5.80
2019-02-22T20:56:22.159Z,5.80
2019-02-22T20:58:50.616Z,5.90
2019-02-22T21:01:19.177Z,6.00
2019-02-22T21:03:47.640Z,6.10
2019-02-22T21:06:16.094Z,6.10
2019-02-22T21:08:44.772Z,5.90
2019-02-22T21:11:13.240Z,5.80
2019-02-22T21:13:42.255Z,5.70
2019-02-22T21:16:10.747Z,5.90
2019-02-22T21:18:39.268Z,5.90
2019-02-22T21:21:07.751Z,6.10
2019-02-22T21:23:36.219Z,6.10
2019-02-22T21:26:04.787Z,6.20
2019-02-22T21:28:33.403Z,6.20
2019-02-22T21:31:01.873Z,6.40
2019-02-22T21:33:30.436Z,6.60
2019-02-22T21:35:58.966Z,6.50
2019-02-22T21:38:28.449Z,6.30
2019-02-22T21:40:56.904Z,6.20
2019-02-22T21:43:25.376Z,6.20
2019-02-22T21:45:53.936Z,6.20
2019-02-22T21:48:27.494Z,6.20
2019-02-22T21:50:52.705Z,6.20
2019-02-22T21:53:21.221Z,6.20
2019-02-22T21:55:49.736Z,6.20
2019-02-22T21:58:18.192Z,6.20
2019-02-22T22:00:46.672Z,6.10
2019-02-22T22:03:15.725Z,5.90
2019-02-22T22:05:45.041Z,6.00
2019-02-22T22:08:14.024Z,6.10
2019-02-22T22:10:42.935Z,6.10
2019-02-22T22:13:11.875Z,6.00
2019-02-22T22:15:40.419Z,6.10
2019-02-22T22:18:08.870Z,6.20
2019-02-22T22:20:37.326Z,6.30
2019-02-22T22:23:05.816Z,6.30
2019-02-22T22:25:34.375Z,6.30
2019-02-22T22:28:03.025Z,6.40
2019-02-22T22:30:31.572Z,6.30
2019-02-22T22:33:00.033Z,6.40
2019-02-22T22:35:28.567Z,6.30
2019-02-22T22:37:57.127Z,6.30
2019-02-22T22:40:25.586Z,6.40
2019-02-22T22:42:54.051Z,6.40
2019-02-22T22:45:22.693Z,6.40
2019-02-22T22:47:51.285Z,6.40
2019-02-22T22:50:19.724Z,6.30
2019-02-22T22:52:48.212Z,6.30
2019-02-22T22:55:16.747Z,6.30
2019-02-22T22:57:45.272Z,6.30
2019-02-22T23:00:39.844Z,6.20
2019-02-22T23:03:08.463Z,6.20
2019-02-22T23:05:37.110Z,6.20
2019-02-22T23:08:05.745Z,6.10
2019-02-22T23:10:34.276Z,6.10
2019-02-22T23:13:02.749Z,6.10
2019-02-22T23:15:31.303Z,6.00
2019-02-22T23:17:59.839Z,6.00
2019-02-22T23:20:28.525Z,6.00
2019-02-22T23:22:57.199Z,5.90
2019-02-22T23:25:25.820Z,5.90
2019-02-22T23:27:54.349Z,5.80
2019-02-22T23:30:23.072Z,5.80
2019-02-22T23:32:52.013Z,5.70
2019-02-22T23:35:21.229Z,5.70
2019-02-22T23:37:50.421Z,5.60
2019-02-22T23:40:19.026Z,5.60
2019-02-22T23:42:47.568Z,5.60
2019-02-22T23:45:17.801Z,5.50
2019-02-22T23:47:46.588Z,5.50
2019-02-22T23:50:15.195Z,5.50
2019-02-22T23:52:44.181Z,5.40
2019-02-22T23:55:12.776Z,5.40
2019-02-22T23:57:41.415Z,5.40
